sensor_id;sensor_type;location;lat;lon;timestamp;pressure;altitude;pressure_sealevel;temperature;humidity
67013;BME280;53926;47.406;19.188;2023-02-12T00:01:16;101531.47;;;3.57;100.00
67013;BME280;53926;47.406;19.188;2023-02-12T00:03:43;101535.41;;;3.51;100.00
67013;BME280;53926;47.406;19.188;2023-02-12T00:06:11;101515.63;;;3.52;100.00
67013;BME280;53926;47.406;19.188;2023-02-12T00:08:41;101524.53;;;3.48;100.00
67013;BME280;53926;47.406;19.188;2023-02-12T00:11:09;101521.00;;;3.39;100.00
67013;BME280;53926;47.406;19.188;2023-02-12T00:13:37;101510.44;;;3.42;100.00
67013;BME280;53926;47.406;19.188;2023-02-12T00:16:07;101512.56;;;3.37;100.00
67013;BME280;53926;47.406;19.188;2023-02-12T00:18:34;101513.56;;;3.46;100.00
67013;BME280;53926;47.406;19.188;2023-02-12T00:21:01;101510.44;;;3.42;100.00
67013;BME280;53926;47.406;19.188;2023-02-12T00:23:28;101516.91;;;3.36;100.00
67013;BME280;53926;47.406;19.188;2023-02-12T00:25:55;101519.00;;;3.21;100.00
67013;BME280;53926;47.406;19.188;2023-02-12T00:28:22;101533.00;;;3.29;100.00
67013;BME280;53926;47.406;19.188;2023-02-12T00:30:49;101540.00;;;3.17;100.00
67013;BME280;53926;47.406;19.188;2023-02-12T00:33:16;101533.44;;;3.34;100.00
67013;BME280;53926;47.406;19.188;2023-02-12T00:35:43;101541.53;;;3.29;100.00
67013;BME280;53926;47.406;19.188;2023-02-12T00:38:10;101552.22;;;3.25;100.00
67013;BME280;53926;47.406;19.188;2023-02-12T00:40:36;101556.69;;;3.22;100.00
67013;BME280;53926;47.406;19.188;2023-02-12T00:43:03;101559.66;;;3.18;100.00
67013;BME280;53926;47.406;19.188;2023-02-12T00:45:30;101548.59;;;3.27;100.00
67013;BME280;53926;47.406;19.188;2023-02-12T00:47:56;101549.66;;;3.25;100.00
67013;BME280;53926;47.406;19.188;2023-02-12T00:50:23;101551.53;;;3.22;100.00
67013;BME280;53926;47.406;19.188;2023-02-12T00:52:49;101542.50;;;3.28;100.00
67013;BME280;53926;47.406;19.188;2023-02-12T00:55:16;101544.06;;;3.19;100.00
67013;BME280;53926;47.406;19.188;2023-02-12T00:57:43;101535.28;;;3.22;100.00
67013;BME280;53926;47.406;19.188;2023-02-12T01:00:10;101540.72;;;3.29;100.00
67013;BME280;53926;47.406;19.188;2023-02-12T01:02:37;101531.25;;;3.29;100.00
67013;BME280;53926;47.406;19.188;2023-02-12T01:05:04;101537.47;;;3.27;100.00
67013;BME280;53926;47.406;19.188;2023-02-12T01:07:30;101526.34;;;3.26;100.00
67013;BME280;53926;47.406;19.188;2023-02-12T01:09:57;101536.84;;;3.34;100.00
67013;BME280;53926;47.406;19.188;2023-02-12T01:12:24;101547.12;;;3.34;100.00
67013;BME280;53926;47.406;19.188;2023-02-12T01:14:50;101537.03;;;3.21;100.00
67013;BME280;53926;47.406;19.188;2023-02-12T01:17:17;101546.44;;;3.32;100.00
67013;BME280;53926;47.406;19.188;2023-02-12T01:19:44;101548.50;;;3.38;100.00
67013;BME280;53926;47.406;19.188;2023-02-12T01:22:10;101548.84;;;3.24;100.00
67013;BME280;53926;47.406;19.188;2023-02-12T01:24:37;101565.31;;;3.12;100.00
67013;BME280;53926;47.406;19.188;2023-02-12T01:27:04;101556.78;;;3.11;100.00
67013;BME280;53926;47.406;19.188;2023-02-12T01:29:30;101557.72;;;3.10;100.00
67013;BME280;53926;47.406;19.188;2023-02-12T01:31:57;101548.81;;;3.14;100.00
67013;BME280;53926;47.406;19.188;2023-02-12T01:34:24;101554.06;;;3.13;100.00
67013;BME280;53926;47.406;19.188;2023-02-12T01:36:50;101552.53;;;3.00;100.00
67013;BME280;53926;47.406;19.188;2023-02-12T01:39:17;101544.59;;;2.92;100.00
67013;BME280;53926;47.406;19.188;2023-02-12T01:41:44;101545.34;;;2.83;100.00
67013;BME280;53926;47.406;19.188;2023-02-12T01:44:21;101547.31;;;2.70;100.00
67013;BME280;53926;47.406;19.188;2023-02-12T01:46:52;101559.22;;;2.71;100.00
67013;BME280;53926;47.406;19.188;2023-02-12T01:49:21;101559.84;;;2.63;100.00
67013;BME280;53926;47.406;19.188;2023-02-12T01:51:57;101563.94;;;2.54;100.00
67013;BME280;53926;47.406;19.188;2023-02-12T01:54:25;101564.19;;;2.30;100.00
67013;BME280;53926;47.406;19.188;2023-02-12T01:56:52;101561.88;;;2.15;100.00
67013;BME280;53926;47.406;19.188;2023-02-12T01:59:19;101561.50;;;2.31;100.00
67013;BME280;53926;47.406;19.188;2023-02-12T02:01:47;101578.25;;;2.14;100.00
67013;BME280;53926;47.406;19.188;2023-02-12T02:04:20;101566.41;;;2.23;100.00
67013;BME280;53926;47.406;19.188;2023-02-12T02:06:53;101567.72;;;2.50;100.00
67013;BME280;53926;47.406;19.188;2023-02-12T02:09:21;101565.03;;;2.52;100.00
67013;BME280;53926;47.406;19.188;2023-02-12T02:11:48;101571.09;;;2.50;100.00
67013;BME280;53926;47.406;19.188;2023-02-12T02:14:34;101578.75;;;2.29;100.00
67013;BME280;53926;47.406;19.188;2023-02-12T02:22:43;101568.59;;;2.60;100.00
67013;BME280;53926;47.406;19.188;2023-02-12T02:34:01;101571.03;;;2.41;100.00
67013;BME280;53926;47.406;19.188;2023-02-12T02:37:00;101576.19;;;2.29;100.00
67013;BME280;53926;47.406;19.188;2023-02-12T02:39:42;101574.28;;;2.43;100.00
67013;BME280;53926;47.406;19.188;2023-02-12T02:42:16;101576.19;;;2.29;100.00
67013;BME280;53926;47.406;19.188;2023-02-12T02:44:49;101582.16;;;2.30;100.00
67013;BME280;53926;47.406;19.188;2023-02-12T02:47:20;101591.31;;;2.11;100.00
67013;BME280;53926;47.406;19.188;2023-02-12T02:49:54;101586.66;;;1.94;100.00
67013;BME280;53926;47.406;19.188;2023-02-12T02:52:29;101601.25;;;2.05;100.00
67013;BME280;53926;47.406;19.188;2023-02-12T02:55:02;101603.37;;;1.88;100.00
67013;BME280;53926;47.406;19.188;2023-02-12T02:57:35;101608.16;;;1.82;100.00
67013;BME280;53926;47.406;19.188;2023-02-12T03:00:14;101604.78;;;1.36;100.00
67013;BME280;53926;47.406;19.188;2023-02-12T03:02:47;101614.53;;;1.08;100.00
67013;BME280;53926;47.406;19.188;2023-02-12T03:05:18;101615.47;;;1.18;100.00
67013;BME280;53926;47.406;19.188;2023-02-12T03:07:51;101616.59;;;1.03;100.00
67013;BME280;53926;47.406;19.188;2023-02-12T03:10:22;101619.34;;;0.64;100.00
67013;BME280;53926;47.406;19.188;2023-02-12T03:13:05;101627.38;;;0.35;100.00
67013;BME280;53926;47.406;19.188;2023-02-12T03:15:38;101630.53;;;0.39;100.00
67013;BME280;53926;47.406;19.188;2023-02-12T03:18:12;101625.38;;;0.28;100.00
67013;BME280;53926;47.406;19.188;2023-02-12T03:20:47;101632.25;;;0.51;100.00
67013;BME280;53926;47.406;19.188;2023-02-12T03:23:21;101639.34;;;0.35;100.00
67013;BME280;53926;47.406;19.188;2023-02-12T03:25:57;101642.44;;;-0.10;100.00
67013;BME280;53926;47.406;19.188;2023-02-12T03:28:28;101644.50;;;-0.15;100.00
67013;BME280;53926;47.406;19.188;2023-02-12T03:36:51;101661.69;;;-0.30;100.00
67013;BME280;53926;47.406;19.188;2023-02-12T03:42:26;101659.44;;;-0.34;100.00
67013;BME280;53926;47.406;19.188;2023-02-12T03:48:12;101673.56;;;0.47;100.00
67013;BME280;53926;47.406;19.188;2023-02-12T03:53:14;101660.16;;;0.92;100.00
67013;BME280;53926;47.406;19.188;2023-02-12T03:55:44;101677.84;;;0.83;100.00
67013;BME280;53926;47.406;19.188;2023-02-12T03:58:12;101675.72;;;0.77;100.00
67013;BME280;53926;47.406;19.188;2023-02-12T04:00:41;101678.56;;;0.85;100.00
67013;BME280;53926;47.406;19.188;2023-02-12T04:03:08;101686.53;;;0.57;100.00
67013;BME280;53926;47.406;19.188;2023-02-12T04:05:35;101689.84;;;0.83;100.00
67013;BME280;53926;47.406;19.188;2023-02-12T04:08:07;101691.81;;;0.42;100.00
67013;BME280;53926;47.406;19.188;2023-02-12T04:13:19;101708.28;;;-0.25;100.00
67013;BME280;53926;47.406;19.188;2023-02-12T04:16:12;101709.06;;;-0.50;100.00
67013;BME280;53926;47.406;19.188;2023-02-12T04:18:45;101720.09;;;-0.62;100.00
67013;BME280;53926;47.406;19.188;2023-02-12T04:24:02;101710.88;;;-0.65;100.00
67013;BME280;53926;47.406;19.188;2023-02-12T04:29:53;101731.00;;;-0.46;100.00
67013;BME280;53926;47.406;19.188;2023-02-12T04:32:37;101729.34;;;-0.60;100.00
67013;BME280;53926;47.406;19.188;2023-02-12T04:40:31;101742.37;;;-1.04;100.00
67013;BME280;53926;47.406;19.188;2023-02-12T04:42:58;101741.03;;;-1.10;100.00
67013;BME280;53926;47.406;19.188;2023-02-12T04:45:28;101749.97;;;-1.17;100.00
67013;BME280;53926;47.406;19.188;2023-02-12T04:47:55;101757.25;;;-1.38;100.00
67013;BME280;53926;47.406;19.188;2023-02-12T04:50:22;101762.97;;;-1.35;100.00
67013;BME280;53926;47.406;19.188;2023-02-12T04:52:48;101762.63;;;-1.57;100.00
67013;BME280;53926;47.406;19.188;2023-02-12T04:55:15;101772.37;;;-1.35;100.00
67013;BME280;53926;47.406;19.188;2023-02-12T04:57:42;101770.31;;;-1.86;100.00
67013;BME280;53926;47.406;19.188;2023-02-12T05:00:12;101790.69;;;-2.01;100.00
67013;BME280;53926;47.406;19.188;2023-02-12T05:02:39;101783.63;;;-2.26;100.00
67013;BME280;53926;47.406;19.188;2023-02-12T05:05:06;101776.91;;;-2.43;100.00
67013;BME280;53926;47.406;19.188;2023-02-12T05:07:33;101782.75;;;-2.10;100.00
67013;BME280;53926;47.406;19.188;2023-02-12T05:10:00;101792.75;;;-2.22;100.00
67013;BME280;53926;47.406;19.188;2023-02-12T05:12:26;101788.31;;;-2.64;100.00
67013;BME280;53926;47.406;19.188;2023-02-12T05:14:53;101785.75;;;-2.64;100.00
67013;BME280;53926;47.406;19.188;2023-02-12T05:17:23;101804.13;;;-2.74;100.00
67013;BME280;53926;47.406;19.188;2023-02-12T05:19:50;101805.19;;;-2.62;100.00
67013;BME280;53926;47.406;19.188;2023-02-12T05:22:17;101809.78;;;-2.68;100.00
67013;BME280;53926;47.406;19.188;2023-02-12T05:24:44;101816.44;;;-2.98;100.00
67013;BME280;53926;47.406;19.188;2023-02-12T05:27:11;101817.75;;;-3.07;100.00
67013;BME280;53926;47.406;19.188;2023-02-12T05:29:37;101821.88;;;-3.04;100.00
67013;BME280;53926;47.406;19.188;2023-02-12T05:32:04;101821.88;;;-3.20;100.00
67013;BME280;53926;47.406;19.188;2023-02-12T05:34:33;101831.38;;;-3.24;100.00
67013;BME280;53926;47.406;19.188;2023-02-12T05:36:59;101828.00;;;-3.40;100.00
67013;BME280;53926;47.406;19.188;2023-02-12T05:39:26;101828.88;;;-3.08;100.00
67013;BME280;53926;47.406;19.188;2023-02-12T05:41:53;101825.75;;;-2.97;100.00
67013;BME280;53926;47.406;19.188;2023-02-12T05:44:19;101839.31;;;-2.96;100.00
67013;BME280;53926;47.406;19.188;2023-02-12T05:46:46;101840.63;;;-2.89;100.00
67013;BME280;53926;47.406;19.188;2023-02-12T05:49:13;101838.28;;;-3.10;100.00
67013;BME280;53926;47.406;19.188;2023-02-12T05:51:40;101841.16;;;-3.16;100.00
67013;BME280;53926;47.406;19.188;2023-02-12T05:54:07;101850.69;;;-3.19;100.00
67013;BME280;53926;47.406;19.188;2023-02-12T05:56:42;101857.94;;;-3.12;100.00
67013;BME280;53926;47.406;19.188;2023-02-12T05:59:17;101861.28;;;-2.94;100.00
67013;BME280;53926;47.406;19.188;2023-02-12T06:01:45;101866.66;;;-3.16;100.00
67013;BME280;53926;47.406;19.188;2023-02-12T06:04:23;101858.81;;;-3.29;100.00
67013;BME280;53926;47.406;19.188;2023-02-12T06:06:51;101877.03;;;-3.36;100.00
67013;BME280;53926;47.406;19.188;2023-02-12T06:09:18;101877.94;;;-3.37;100.00
67013;BME280;53926;47.406;19.188;2023-02-12T06:11:45;101886.19;;;-3.50;100.00
67013;BME280;53926;47.406;19.188;2023-02-12T06:14:14;101892.56;;;-3.41;100.00
67013;BME280;53926;47.406;19.188;2023-02-12T06:16:48;101905.53;;;-3.12;100.00
67013;BME280;53926;47.406;19.188;2023-02-12T06:19:16;101911.13;;;-3.39;100.00
67013;BME280;53926;47.406;19.188;2023-02-12T06:21:43;101909.59;;;-3.26;100.00
67013;BME280;53926;47.406;19.188;2023-02-12T06:24:14;101915.69;;;-3.28;100.00
67013;BME280;53926;47.406;19.188;2023-02-12T06:26:41;101916.06;;;-3.18;100.00
67013;BME280;53926;47.406;19.188;2023-02-12T06:29:08;101910.28;;;-2.89;100.00
67013;BME280;53926;47.406;19.188;2023-02-12T06:31:36;101899.75;;;-2.98;100.00
67013;BME280;53926;47.406;19.188;2023-02-12T06:34:06;101902.78;;;-2.92;100.00
67013;BME280;53926;47.406;19.188;2023-02-12T06:36:35;101918.53;;;-2.67;100.00
67013;BME280;53926;47.406;19.188;2023-02-12T06:39:02;101919.25;;;-2.65;100.00
67013;BME280;53926;47.406;19.188;2023-02-12T06:41:29;101914.34;;;-2.53;100.00
67013;BME280;53926;47.406;19.188;2023-02-12T06:43:55;101916.38;;;-2.27;100.00
67013;BME280;53926;47.406;19.188;2023-02-12T06:46:22;101926.38;;;-2.39;100.00
67013;BME280;53926;47.406;19.188;2023-02-12T06:48:55;101922.81;;;-2.36;100.00
67013;BME280;53926;47.406;19.188;2023-02-12T06:51:23;101923.41;;;-2.31;100.00
67013;BME280;53926;47.406;19.188;2023-02-12T06:53:51;101932.50;;;-2.27;100.00
67013;BME280;53926;47.406;19.188;2023-02-12T06:56:19;101937.78;;;-2.14;100.00
67013;BME280;53926;47.406;19.188;2023-02-12T06:58:51;101946.66;;;-1.89;100.00
67013;BME280;53926;47.406;19.188;2023-02-12T07:01:20;101959.56;;;-1.46;100.00
67013;BME280;53926;47.406;19.188;2023-02-12T07:03:50;101948.09;;;-1.24;100.00
67013;BME280;53926;47.406;19.188;2023-02-12T07:06:17;101956.59;;;-0.95;100.00
67013;BME280;53926;47.406;19.188;2023-02-12T07:08:45;101958.78;;;-0.89;100.00
67013;BME280;53926;47.406;19.188;2023-02-12T07:11:12;101966.47;;;-0.89;100.00
67013;BME280;53926;47.406;19.188;2023-02-12T07:13:43;101959.06;;;-0.79;100.00
67013;BME280;53926;47.406;19.188;2023-02-12T07:16:12;101961.87;;;-0.69;100.00
67013;BME280;53926;47.406;19.188;2023-02-12T07:18:41;101965.19;;;-0.67;100.00
67013;BME280;53926;47.406;19.188;2023-02-12T07:21:09;101971.47;;;-0.59;100.00
67013;BME280;53926;47.406;19.188;2023-02-12T07:23:36;101971.84;;;-0.50;100.00
67013;BME280;53926;47.406;19.188;2023-02-12T07:26:06;101983.94;;;-0.25;100.00
67013;BME280;53926;47.406;19.188;2023-02-12T07:28:34;101993.22;;;-0.10;100.00
67013;BME280;53926;47.406;19.188;2023-02-12T07:31:14;101997.38;;;0.06;100.00
67013;BME280;53926;47.406;19.188;2023-02-12T07:33:42;102003.09;;;0.24;100.00
67013;BME280;53926;47.406;19.188;2023-02-12T07:36:11;101997.09;;;0.38;100.00
67013;BME280;53926;47.406;19.188;2023-02-12T07:38:39;102004.91;;;0.49;100.00
67013;BME280;53926;47.406;19.188;2023-02-12T07:41:11;102012.13;;;0.95;100.00
67013;BME280;53926;47.406;19.188;2023-02-12T07:43:40;102009.56;;;1.21;100.00
67013;BME280;53926;47.406;19.188;2023-02-12T07:46:15;102007.31;;;1.42;100.00
67013;BME280;53926;47.406;19.188;2023-02-12T07:48:43;102017.50;;;1.68;100.00
67013;BME280;53926;47.406;19.188;2023-02-12T07:51:13;102034.09;;;1.88;100.00
67013;BME280;53926;47.406;19.188;2023-02-12T07:53:40;102029.97;;;1.98;100.00
67013;BME280;53926;47.406;19.188;2023-02-12T07:56:28;102031.28;;;2.04;100.00
67013;BME280;53926;47.406;19.188;2023-02-12T07:58:59;102032.78;;;2.19;100.00
67013;BME280;53926;47.406;19.188;2023-02-12T08:01:35;102026.25;;;2.26;100.00
67013;BME280;53926;47.406;19.188;2023-02-12T08:04:04;102027.22;;;2.37;100.00
67013;BME280;53926;47.406;19.188;2023-02-12T08:06:34;102022.97;;;2.48;100.00
67013;BME280;53926;47.406;19.188;2023-02-12T08:09:03;102028.53;;;2.66;100.00
67013;BME280;53926;47.406;19.188;2023-02-12T08:11:30;102033.50;;;3.03;100.00
67013;BME280;53926;47.406;19.188;2023-02-12T08:13:57;102043.94;;;3.70;100.00
67013;BME280;53926;47.406;19.188;2023-02-12T08:16:25;102044.28;;;4.20;100.00
67013;BME280;53926;47.406;19.188;2023-02-12T08:18:53;102040.50;;;4.78;100.00
67013;BME280;53926;47.406;19.188;2023-02-12T08:21:22;102040.00;;;5.86;100.00
67013;BME280;53926;47.406;19.188;2023-02-12T08:23:50;102037.72;;;7.56;100.00
67013;BME280;53926;47.406;19.188;2023-02-12T08:26:25;102040.09;;;7.12;96.36
67013;BME280;53926;47.406;19.188;2023-02-12T08:31:23;102032.34;;;7.67;92.95
67013;BME280;53926;47.406;19.188;2023-02-12T08:33:51;102040.25;;;8.12;86.45
67013;BME280;53926;47.406;19.188;2023-02-12T08:36:22;102040.44;;;8.99;82.37
67013;BME280;53926;47.406;19.188;2023-02-12T08:38:49;102040.13;;;8.75;82.67
67013;BME280;53926;47.406;19.188;2023-02-12T08:41:23;102037.06;;;12.62;65.06
67013;BME280;53926;47.406;19.188;2023-02-12T08:43:55;102044.88;;;12.01;67.48
67013;BME280;53926;47.406;19.188;2023-02-12T08:46:24;102038.66;;;13.68;58.19
67013;BME280;53926;47.406;19.188;2023-02-12T08:48:57;102044.97;;;15.50;50.65
67013;BME280;53926;47.406;19.188;2023-02-12T08:51:27;102055.16;;;13.68;57.19
67013;BME280;53926;47.406;19.188;2023-02-12T08:53:57;102056.63;;;16.02;48.61
67013;BME280;53926;47.406;19.188;2023-02-12T08:56:24;102047.06;;;16.95;46.38
67013;BME280;53926;47.406;19.188;2023-02-12T08:58:52;102057.78;;;16.80;44.28
67013;BME280;53926;47.406;19.188;2023-02-12T09:01:22;102058.84;;;16.66;44.21
67013;BME280;53926;47.406;19.188;2023-02-12T09:03:50;102061.22;;;14.12;49.11
67013;BME280;53926;47.406;19.188;2023-02-12T09:06:19;102066.75;;;16.05;46.10
67013;BME280;53926;47.406;19.188;2023-02-12T09:08:47;102077.25;;;15.02;47.58
67013;BME280;53926;47.406;19.188;2023-02-12T09:11:21;102078.91;;;12.92;52.81
67013;BME280;53926;47.406;19.188;2023-02-12T09:14:00;102074.50;;;15.72;47.13
67013;BME280;53926;47.406;19.188;2023-02-12T09:16:28;102082.16;;;17.34;42.33
67013;BME280;53926;47.406;19.188;2023-02-12T09:18:56;102088.19;;;16.76;42.16
67013;BME280;53926;47.406;19.188;2023-02-12T09:21:23;102093.63;;;16.68;42.66
67013;BME280;53926;47.406;19.188;2023-02-12T09:23:50;102097.66;;;16.77;43.68
67013;BME280;53926;47.406;19.188;2023-02-12T09:26:20;102109.00;;;16.84;42.64
67013;BME280;53926;47.406;19.188;2023-02-12T09:28:48;102094.03;;;16.78;41.74
67013;BME280;53926;47.406;19.188;2023-02-12T09:31:22;102093.53;;;18.87;38.24
67013;BME280;53926;47.406;19.188;2023-02-12T09:33:54;102095.75;;;18.40;37.14
67013;BME280;53926;47.406;19.188;2023-02-12T09:36:21;102098.47;;;18.01;38.72
67013;BME280;53926;47.406;19.188;2023-02-12T09:38:48;102102.97;;;17.87;39.75
67013;BME280;53926;47.406;19.188;2023-02-12T09:43:54;102104.72;;;18.32;38.09
67013;BME280;53926;47.406;19.188;2023-02-12T09:46:32;102101.91;;;18.02;38.58
67013;BME280;53926;47.406;19.188;2023-02-12T09:49:09;102105.50;;;18.39;37.51
67013;BME280;53926;47.406;19.188;2023-02-12T09:51:42;102106.44;;;19.81;34.99
67013;BME280;53926;47.406;19.188;2023-02-12T09:54:13;102106.72;;;17.73;37.18
67013;BME280;53926;47.406;19.188;2023-02-12T09:56:45;102116.19;;;20.23;33.90
67013;BME280;53926;47.406;19.188;2023-02-12T09:59:25;102118.97;;;20.52;33.30
67013;BME280;53926;47.406;19.188;2023-02-12T10:01:53;102116.91;;;20.89;32.49
67013;BME280;53926;47.406;19.188;2023-02-12T10:04:21;102117.44;;;20.09;32.93
67013;BME280;53926;47.406;19.188;2023-02-12T10:13:10;102123.97;;;18.08;37.51
67013;BME280;53926;47.406;19.188;2023-02-12T10:23:59;102131.22;;;17.74;37.54
67013;BME280;53926;47.406;19.188;2023-02-12T10:26:43;102134.13;;;14.66;44.96
67013;BME280;53926;47.406;19.188;2023-02-12T10:29:22;102137.66;;;14.37;46.24
67013;BME280;53926;47.406;19.188;2023-02-12T10:31:57;102136.13;;;16.51;42.07
67013;BME280;53926;47.406;19.188;2023-02-12T10:34:30;102135.56;;;18.82;36.97
67013;BME280;53926;47.406;19.188;2023-02-12T10:37:04;102146.03;;;20.78;33.00
67013;BME280;53926;47.406;19.188;2023-02-12T10:39:40;102145.63;;;21.74;30.62
67013;BME280;53926;47.406;19.188;2023-02-12T10:42:32;102148.28;;;21.74;30.71
67013;BME280;53926;47.406;19.188;2023-02-12T10:45:02;102144.28;;;22.51;29.37
67013;BME280;53926;47.406;19.188;2023-02-12T10:47:29;102148.22;;;20.03;33.92
67013;BME280;53926;47.406;19.188;2023-02-12T10:50:00;102146.62;;;19.16;34.83
67013;BME280;53926;47.406;19.188;2023-02-12T10:52:50;102139.94;;;20.77;31.83
67013;BME280;53926;47.406;19.188;2023-02-12T10:57:53;102140.19;;;20.76;32.35
67013;BME280;53926;47.406;19.188;2023-02-12T11:00:32;102139.44;;;22.14;30.09
67013;BME280;53926;47.406;19.188;2023-02-12T11:05:40;102140.69;;;19.21;33.57
67013;BME280;53926;47.406;19.188;2023-02-12T11:08:34;102135.78;;;18.30;35.46
67013;BME280;53926;47.406;19.188;2023-02-12T11:11:03;102138.44;;;15.09;41.75
67013;BME280;53926;47.406;19.188;2023-02-12T11:13:31;102127.75;;;14.33;44.63
67013;BME280;53926;47.406;19.188;2023-02-12T11:15:58;102138.44;;;13.80;46.22
67013;BME280;53926;47.406;19.188;2023-02-12T11:18:29;102145.44;;;12.51;50.76
67013;BME280;53926;47.406;19.188;2023-02-12T11:21:05;102145.78;;;13.24;48.24
67013;BME280;53926;47.406;19.188;2023-02-12T11:23:42;102137.72;;;10.67;58.19
67013;BME280;53926;47.406;19.188;2023-02-12T11:28:59;102146.72;;;12.56;52.36
67013;BME280;53926;47.406;19.188;2023-02-12T11:31:29;102136.84;;;13.79;49.28
67013;BME280;53926;47.406;19.188;2023-02-12T11:36:45;102150.03;;;13.40;49.51
67013;BME280;53926;47.406;19.188;2023-02-12T11:39:36;102147.59;;;11.85;53.60
67013;BME280;53926;47.406;19.188;2023-02-12T11:44:47;102147.16;;;12.13;52.75
67013;BME280;53926;47.406;19.188;2023-02-12T11:47:27;102147.66;;;12.78;50.97
67013;BME280;53926;47.406;19.188;2023-02-12T11:52:26;102141.78;;;11.11;57.96
67013;BME280;53926;47.406;19.188;2023-02-12T11:54:59;102142.53;;;12.46;53.02
67013;BME280;53926;47.406;19.188;2023-02-12T11:57:34;102148.31;;;12.33;53.02
67013;BME280;53926;47.406;19.188;2023-02-12T12:00:15;102152.25;;;11.58;55.64
67013;BME280;53926;47.406;19.188;2023-02-12T12:05:44;102149.53;;;12.23;53.86
67013;BME280;53926;47.406;19.188;2023-02-12T12:08:31;102141.25;;;12.42;52.36
67013;BME280;53926;47.406;19.188;2023-02-12T12:11:27;102139.41;;;11.96;54.26
67013;BME280;53926;47.406;19.188;2023-02-12T12:14:02;102149.25;;;11.78;55.30
67013;BME280;53926;47.406;19.188;2023-02-12T12:16:35;102139.19;;;10.45;59.56
67013;BME280;53926;47.406;19.188;2023-02-12T12:19:35;102132.50;;;10.42;60.04
67013;BME280;53926;47.406;19.188;2023-02-12T12:25:20;102124.87;;;11.54;57.20
67013;BME280;53926;47.406;19.188;2023-02-12T12:38:29;102121.56;;;9.79;62.81
67013;BME280;53926;47.406;19.188;2023-02-12T12:47:10;102127.09;;;9.76;62.94
67013;BME280;53926;47.406;19.188;2023-02-12T12:52:31;102122.25;;;9.90;62.26
67013;BME280;53926;47.406;19.188;2023-02-12T12:58:32;102135.78;;;8.62;67.05
67013;BME280;53926;47.406;19.188;2023-02-12T13:04:15;102140.34;;;8.60;67.45
67013;BME280;53926;47.406;19.188;2023-02-12T13:09:26;102143.31;;;8.37;68.18
67013;BME280;53926;47.406;19.188;2023-02-12T13:14:39;102141.00;;;8.62;66.94
67013;BME280;53926;47.406;19.188;2023-02-12T13:17:17;102138.09;;;8.65;66.86
67013;BME280;53926;47.406;19.188;2023-02-12T13:20:35;102146.41;;;8.51;67.63
67013;BME280;53926;47.406;19.188;2023-02-12T13:26:13;102137.59;;;8.16;68.52
67013;BME280;53926;47.406;19.188;2023-02-12T13:29:12;102139.00;;;8.10;69.34
67013;BME280;53926;47.406;19.188;2023-02-12T13:34:33;102139.00;;;8.56;66.84
67013;BME280;53926;47.406;19.188;2023-02-12T13:37:02;102136.38;;;8.38;67.71
67013;BME280;53926;47.406;19.188;2023-02-12T13:39:49;102129.91;;;8.24;68.17
67013;BME280;53926;47.406;19.188;2023-02-12T13:50:35;102135.34;;;7.75;70.25
67013;BME280;53926;47.406;19.188;2023-02-12T14:01:03;102150.66;;;7.21;72.90
67013;BME280;53926;47.406;19.188;2023-02-12T14:03:30;102150.38;;;7.14;73.35
67013;BME280;53926;47.406;19.188;2023-02-12T14:08:44;102157.34;;;6.94;75.22
67013;BME280;53926;47.406;19.188;2023-02-12T14:11:15;102154.50;;;6.97;74.59
67013;BME280;53926;47.406;19.188;2023-02-12T14:14:00;102158.44;;;7.02;73.96
67013;BME280;53926;47.406;19.188;2023-02-12T14:22:55;102139.56;;;7.39;71.74
67013;BME280;53926;47.406;19.188;2023-02-12T14:27:56;102148.94;;;7.49;71.04
67013;BME280;53926;47.406;19.188;2023-02-12T14:30:37;102151.00;;;7.46;70.37
67013;BME280;53926;47.406;19.188;2023-02-12T14:40:41;102157.81;;;7.47;69.23
67013;BME280;53926;47.406;19.188;2023-02-12T14:43:31;102149.56;;;7.71;68.37
67013;BME280;53926;47.406;19.188;2023-02-12T14:54:29;102158.28;;;8.08;65.61
67013;BME280;53926;47.406;19.188;2023-02-12T14:57:00;102156.16;;;7.93;66.59
67013;BME280;53926;47.406;19.188;2023-02-12T14:59:32;102163.94;;;8.21;65.30
67013;BME280;53926;47.406;19.188;2023-02-12T15:02:04;102155.37;;;7.83;65.21
67013;BME280;53926;47.406;19.188;2023-02-12T15:04:35;102157.38;;;7.61;66.75
67013;BME280;53926;47.406;19.188;2023-02-12T15:07:07;102148.28;;;7.38;67.43
67013;BME280;53926;47.406;19.188;2023-02-12T15:09:39;102151.31;;;7.33;67.97
67013;BME280;53926;47.406;19.188;2023-02-12T15:12:26;102153.69;;;6.97;69.72
67013;BME280;53926;47.406;19.188;2023-02-12T15:15:09;102159.03;;;6.86;70.18
67013;BME280;53926;47.406;19.188;2023-02-12T15:17:40;102155.75;;;6.74;70.97
67013;BME280;53926;47.406;19.188;2023-02-12T15:20:18;102161.06;;;6.62;72.10
67013;BME280;53926;47.406;19.188;2023-02-12T15:22:46;102169.91;;;6.60;72.27
67013;BME280;53926;47.406;19.188;2023-02-12T15:25:20;102168.25;;;6.49;72.78
67013;BME280;53926;47.406;19.188;2023-02-12T15:27:54;102169.19;;;6.38;72.95
67013;BME280;53926;47.406;19.188;2023-02-12T15:30:22;102170.38;;;6.24;74.32
67013;BME280;53926;47.406;19.188;2023-02-12T15:32:51;102173.34;;;6.10;75.16
67013;BME280;53926;47.406;19.188;2023-02-12T15:35:25;102174.28;;;5.99;76.42
67013;BME280;53926;47.406;19.188;2023-02-12T15:37:53;102170.19;;;5.76;80.10
67013;BME280;53926;47.406;19.188;2023-02-12T15:40:21;102175.81;;;5.60;80.86
67013;BME280;53926;47.406;19.188;2023-02-12T15:42:56;102183.78;;;5.47;82.44
67013;BME280;53926;47.406;19.188;2023-02-12T15:45:26;102180.69;;;5.32;83.48